Bardufoss, Norway

7:02 AM CEST on April 21, 2015 (GMT +0200)
Andsvatn | | Change Station
CLOSE
Current Station
Personal Weather Station
Location: Sorreisa, TROMS
Elevation: 510 ft
Nearby Weather Stations

Elev 510 ft 69.08 °N, 18.37 °E | Updated 6 seconds ago

Mostly Cloudy
Mostly Cloudy
40.1 °F
Feels Like 40 °F
N
0.0
Wind Variable Wind from South
Gusts 0.0 mph

Today
High -- | Low -- °F
--% Chance of Precip.
Yesterday
High -- | Low -- °F
Precip. -- in
4:22 AM 9:10 PM
Waxing Crescent, 8% visible
Pressure 30.09 in
Visibility 6.2 miles
Clouds Few 3000 ft
Mostly Cloudy 4500 ft
Windchill 40 °F
Dew Point 36 °F
Humidity 84%
Rainfall 0.00 in
Snow Depth Not available.
UV 0 out of 12
Pollen Not available.
Air Quality Not available.
Flu Activity Not available.
METAR ENDU 210450Z 15003KT 060V210 9999 FEW030 BKN045 05/02 Q1019 TEMPO 25010KT RMK WIND AT 2200FT 27036KT

More Conditions Fewer Conditions

Pressure 30.09 in
Visibility 6.2 miles
Clouds Few 3000 ft
Mostly Cloudy 4500 ft
Windchill 40 °F
Dew Point 36 °F
Humidity 84%
Rainfall 0.00 in
Snow Depth Not available.
UV 0 out of 12
Pollen Not available.
Air Quality Not available.
Flu Activity Not available.
METAR ENDU 210450Z 15003KT 060V210 9999 FEW030 BKN045 05/02 Q1019 TEMPO 25010KT RMK WIND AT 2200FT 27036KT

More Conditions Fewer Conditions

10-Day Weather Forecast

Almanac

Astronomy

Apr. 21, 2015 Rise Set
Actual Time
Civil Twilight
Nautical Twilight
Astronomical Twilight
Moon
Length of Visible Light
Length of Day
Tomorrow will be .
, % of the Moon is Illuminated

Today's Extremes

Country Highs Country Lows

Community

WunderPhotos

Upload Photos

1,815,316 photos uploaded!

WunderBlogs® & News

Nearby

Air Quality

  Air Quality AQ Index Pollutant
Not available.

Snow Depth

Station Depth Elevation

Earthquake Activity

City Distance Mag. Time & Date
Minimum magnitude displayed is 2.5.

Coastal Water Temperatures

Place Temperature

Stations

Nearby Weather Stations

Station Location Temp. Windchill Dew Point Humidity Wind Precip. Elev Updated Type